Kezdőlap
METAR-TAF:

METAR-TAF

Repülőterek :

Lárisza, Görögország

földrajzi szélesség: 39-38N, földrajzi hosszúság: 022-25E, magasság: 73 m

METAR: hiányzik

Idő: 03:55 (01:55 UTC)

Előrejelzés

A jelentés 2 órával és 55 perccel ezelõtt készült, 23:00 UTC
Az előrejelzés 24-én 00 óra UTC és 24-én 09 óra UTC között érvényes
Különbözõ irányokból fújó szél 3 kt
Látótávolság 10 km, vagy több
Kevés felhő 3000 lábon

TAF: LGLR 232300Z 2400/2409 VRB03KT 9999 FEW030

Meteorológiai megfigyelések és előrejelzések több, mint 4000 repülőtéren (METAR és TAF jelentéseket).

A térképen piros és sárga pontok jelzik az elérhető meteorológiai állomásokat.

Mozgassa az egeret a pont fölött, hogy megjelenjen az állomás neve.

Azután kattintson az időjárási megfigyelések és előrejelzések megtekintéséhez.

A térkép megváltoztatása: kattintson a fekete keresztel jelölt zöld gombra ráközelítéshez, a vonallal jelölt zöld gombra távolításhoz, vagy a zöld nyilakra a szomszédos térképek eléréséhez.


METAR-TAF: